Time;durP1;ratioP1;P1;durP2;ratioP2;P2;SDS_P1;SDS_P2;PMS_P1;PMS_P2;Temp;Humidity;BMP_temperature;BMP_pressure;BME280_temperature;BME280_humidity;BME280_pressure;Samples;Min_cycle;Max_cycle;Signal;HPM_P1;HPM_P2
2021/08/07 00:00:45;;;;;;;;;;;20.90;62.70;;;;;;491911;240;1146;-46
2021/08/07 00:02:46;;;;;;;;;;;21.00;62.70;;;;;;492013;240;1020;-46
2021/08/07 00:04:47;;;;;;;;;;;21.00;62.60;;;;;;491761;240;1042;-46
2021/08/07 00:06:49;;;;;;;;;;;21.00;62.60;;;;;;491595;240;1054;-46
2021/08/07 00:08:51;;;;;;;;;;;21.00;62.50;;;;;;491611;240;1190;-46
2021/08/07 00:10:51;;;;;;;;;;;21.10;62.40;;;;;;491569;240;2136;-46
2021/08/07 00:12:53;;;;;;;;;;;21.10;62.40;;;;;;491586;240;1091;-46
2021/08/07 00:14:54;;;;;;;;;;;21.10;62.50;;;;;;491730;240;1062;-46
2021/08/07 00:16:55;;;;;;;;;;;21.10;62.30;;;;;;491575;240;1047;-46
2021/08/07 00:18:57;;;;;;;;;;;21.10;62.20;;;;;;491603;240;1209;-46
2021/08/07 00:20:58;;;;;;;;;;;21.10;62.20;;;;;;491894;240;1067;-46
2021/08/07 00:22:59;;;;;;;;;;;21.10;62.20;;;;;;491616;240;1141;-46
2021/08/07 00:25:01;;;;;;;;;;;21.20;62.10;;;;;;491510;240;1065;-46
2021/08/07 00:27:02;;;;;;;;;;;21.20;62.10;;;;;;491718;240;1062;-46
2021/08/07 00:29:03;;;;;;;;;;;21.20;62.00;;;;;;491929;240;1067;-46
2021/08/07 00:31:05;;;;;;;;;;;21.20;61.90;;;;;;491929;240;2140;-46
2021/08/07 00:33:06;;;;;;;;;;;21.30;61.90;;;;;;491798;240;1041;-46
2021/08/07 00:35:07;;;;;;;;;;;21.30;61.90;;;;;;491971;240;1034;-46
2021/08/07 00:37:09;;;;;;;;;;;21.30;61.90;;;;;;491620;240;1210;-46
2021/08/07 00:39:10;;;;;;;;;;;21.40;61.80;;;;;;491564;240;1137;-46
2021/08/07 00:41:11;;;;;;;;;;;21.40;61.70;;;;;;491878;240;1132;-46
2021/08/07 00:43:13;;;;;;;;;;;21.40;61.80;;;;;;492019;240;1047;-46
2021/08/07 00:45:14;;;;;;;;;;;21.40;61.60;;;;;;491959;240;1044;-46
2021/08/07 00:47:15;;;;;;;;;;;21.40;61.60;;;;;;491962;240;1121;-46
2021/08/07 00:49:17;;;;;;;;;;;21.40;61.60;;;;;;491845;240;1048;-46
2021/08/07 00:51:18;;;;;;;;;;;21.50;61.50;;;;;;491841;240;2187;-46
2021/08/07 00:53:19;;;;;;;;;;;21.40;61.50;;;;;;491848;240;1201;-46
2021/08/07 00:55:21;;;;;;;;;;;21.40;61.50;;;;;;491968;240;1051;-46
2021/08/07 00:57:22;;;;;;;;;;;21.50;61.40;;;;;;491669;240;1205;-46
2021/08/07 00:59:23;;;;;;;;;;;21.50;61.40;;;;;;492075;240;1057;-46
2021/08/07 01:01:25;;;;;;;;;;;21.50;61.40;;;;;;491918;240;1090;-46
2021/08/07 01:03:26;;;;;;;;;;;21.50;61.40;;;;;;492044;240;1055;-46
2021/08/07 01:05:28;;;;;;;;;;;21.60;61.40;;;;;;491573;240;1046;-45
2021/08/07 01:07:29;;;;;;;;;;;21.60;61.40;;;;;;491677;240;936;-46
2021/08/07 01:09:30;;;;;;;;;;;21.60;61.20;;;;;;491605;240;1126;-46
2021/08/07 01:11:32;;;;;;;;;;;21.60;61.20;;;;;;491492;240;2192;-46
2021/08/07 01:13:33;;;;;;;;;;;21.60;61.10;;;;;;491541;240;1387;-46
2021/08/07 01:15:34;;;;;;;;;;;21.60;61.20;;;;;;491507;240;1060;-46
2021/08/07 01:17:36;;;;;;;;;;;21.60;61.10;;;;;;491792;240;1075;-46
2021/08/07 01:19:37;;;;;;;;;;;21.70;61.10;;;;;;492002;240;1094;-46
2021/08/07 01:21:38;;;;;;;;;;;21.70;61.10;;;;;;491495;240;1298;-46
2021/08/07 01:23:40;;;;;;;;;;;21.80;61.10;;;;;;491777;240;1222;-46
2021/08/07 01:25:41;;;;;;;;;;;21.80;60.90;;;;;;491625;240;1730;-46
2021/08/07 01:27:42;;;;;;;;;;;21.80;61.00;;;;;;491757;240;1251;-46
2021/08/07 01:29:44;;;;;;;;;;;21.80;60.90;;;;;;492030;240;1049;-46
2021/08/07 01:31:45;;;;;;;;;;;21.80;61.00;;;;;;491922;240;2132;-46
2021/08/07 01:33:46;;;;;;;;;;;21.90;60.80;;;;;;492011;240;1043;-46
2021/08/07 01:35:48;;;;;;;;;;;21.80;60.90;;;;;;491765;240;1074;-45
2021/08/07 01:37:49;;;;;;;;;;;21.70;62.00;;;;;;491584;240;1117;-46
2021/08/07 01:39:50;;;;;;;;;;;21.70;62.10;;;;;;491552;240;1215;-46
2021/08/07 01:41:52;;;;;;;;;;;21.30;63.20;;;;;;491976;240;1028;-45
2021/08/07 01:43:53;;;;;;;;;;;20.90;64.70;;;;;;491966;240;1040;-46
2021/08/07 01:45:54;;;;;;;;;;;20.60;65.90;;;;;;491808;240;1043;-46
2021/08/07 01:47:56;;;;;;;;;;;20.30;66.60;;;;;;492060;240;1265;-46
2021/08/07 01:49:57;;;;;;;;;;;20.20;67.30;;;;;;491840;240;1042;-45
2021/08/07 01:51:58;;;;;;;;;;;20.10;67.60;;;;;;491633;240;2187;-46
2021/08/07 01:54:00;;;;;;;;;;;19.90;67.90;;;;;;491523;240;1159;-45
2021/08/07 01:56:01;;;;;;;;;;;19.90;68.20;;;;;;491532;240;1057;-46
2021/08/07 01:58:02;;;;;;;;;;;19.80;68.40;;;;;;491629;240;1126;-46
2021/08/07 02:00:04;;;;;;;;;;;19.80;68.70;;;;;;492059;240;1184;-45
2021/08/07 02:02:05;;;;;;;;;;;19.70;68.70;;;;;;491683;240;1058;-45
2021/08/07 02:04:06;;;;;;;;;;;19.70;68.70;;;;;;491744;240;980;-45
2021/08/07 02:06:08;;;;;;;;;;;19.70;68.80;;;;;;491923;240;1113;-46
2021/08/07 02:08:09;;;;;;;;;;;19.60;69.00;;;;;;491840;240;1123;-45
2021/08/07 02:10:11;;;;;;;;;;;19.60;69.10;;;;;;491684;240;1190;-45
2021/08/07 02:12:13;;;;;;;;;;;19.50;69.10;;;;;;491930;240;2137;-46
2021/08/07 02:14:14;;;;;;;;;;;19.50;69.10;;;;;;492053;240;1022;-46
2021/08/07 02:16:15;;;;;;;;;;;19.50;69.20;;;;;;491882;240;1067;-45
2021/08/07 02:18:17;;;;;;;;;;;19.50;69.30;;;;;;491607;240;1048;-46
2021/08/07 02:20:18;;;;;;;;;;;19.50;69.30;;;;;;491855;240;1064;-45
2021/08/07 02:22:19;;;;;;;;;;;19.40;69.30;;;;;;491990;240;1126;-46
2021/08/07 02:24:21;;;;;;;;;;;19.40;69.40;;;;;;491622;240;1172;-46
2021/08/07 02:26:22;;;;;;;;;;;19.40;69.40;;;;;;492002;240;1078;-45
2021/08/07 02:28:24;;;;;;;;;;;19.40;69.40;;;;;;491774;240;1129;-46
2021/08/07 02:30:25;;;;;;;;;;;19.40;69.40;;;;;;491946;240;1240;-46
2021/08/07 02:32:26;;;;;;;;;;;19.40;69.50;;;;;;491679;240;2196;-46
2021/08/07 02:34:28;;;;;;;;;;;19.40;69.60;;;;;;492042;240;1029;-46
2021/08/07 02:36:29;;;;;;;;;;;19.30;69.50;;;;;;491963;240;1044;-46
2021/08/07 02:38:31;;;;;;;;;;;19.30;69.60;;;;;;491899;240;1021;-45
2021/08/07 02:40:32;;;;;;;;;;;19.30;69.50;;;;;;491635;240;1159;-45
2021/08/07 02:42:34;;;;;;;;;;;19.30;69.60;;;;;;491814;240;1094;-46
2021/08/07 02:44:35;;;;;;;;;;;19.30;69.60;;;;;;491722;240;1065;-46
2021/08/07 02:46:36;;;;;;;;;;;19.30;69.50;;;;;;491480;240;1146;-46
2021/08/07 02:48:38;;;;;;;;;;;19.30;69.50;;;;;;491645;240;973;-45
2021/08/07 02:50:39;;;;;;;;;;;19.30;69.60;;;;;;491627;240;1100;-46
2021/08/07 02:52:40;;;;;;;;;;;19.20;69.60;;;;;;491979;240;2173;-46
2021/08/07 02:54:42;;;;;;;;;;;19.20;69.70;;;;;;491823;240;1188;-46
2021/08/07 02:56:43;;;;;;;;;;;19.20;69.70;;;;;;491608;240;1197;-45
2021/08/07 02:58:44;;;;;;;;;;;19.20;69.80;;;;;;491564;240;1133;-46
2021/08/07 03:00:46;;;;;;;;;;;19.20;69.70;;;;;;491484;240;1138;-46
2021/08/07 03:02:47;;;;;;;;;;;19.20;69.70;;;;;;491550;240;1224;-46
2021/08/07 03:04:48;;;;;;;;;;;19.20;69.80;;;;;;492067;240;1096;-46
2021/08/07 03:06:50;;;;;;;;;;;19.20;69.70;;;;;;491987;240;1294;-45
2021/08/07 03:08:51;;;;;;;;;;;19.20;69.80;;;;;;491769;240;1059;-46
2021/08/07 03:10:52;;;;;;;;;;;19.20;69.80;;;;;;491610;240;1202;-45
2021/08/07 03:12:54;;;;;;;;;;;19.20;69.80;;;;;;491789;240;2204;-45
2021/08/07 03:14:55;;;;;;;;;;;19.20;69.80;;;;;;492087;240;1131;-45
2021/08/07 03:16:56;;;;;;;;;;;19.10;69.80;;;;;;492017;240;1304;-46
2021/08/07 03:18:58;;;;;;;;;;;19.10;69.90;;;;;;491929;240;1210;-45
2021/08/07 03:20:59;;;;;;;;;;;19.10;69.90;;;;;;491974;240;1159;-45
2021/08/07 03:23:00;;;;;;;;;;;19.10;69.90;;;;;;491536;240;1073;-46
2021/08/07 03:25:02;;;;;;;;;;;19.10;69.90;;;;;;491734;240;1194;-46
2021/08/07 03:27:03;;;;;;;;;;;19.10;69.90;;;;;;491498;240;1049;-46
2021/08/07 03:29:05;;;;;;;;;;;19.10;70.00;;;;;;491579;240;1021;-45
2021/08/07 03:31:06;;;;;;;;;;;19.10;69.90;;;;;;491593;240;1044;-45
2021/08/07 03:33:08;;;;;;;;;;;19.10;69.90;;;;;;491509;240;2377;-46
2021/08/07 03:35:09;;;;;;;;;;;19.10;70.00;;;;;;491639;240;1114;-46
2021/08/07 03:37:10;;;;;;;;;;;19.00;70.00;;;;;;491530;240;1047;-46
2021/08/07 03:39:12;;;;;;;;;;;19.10;70.00;;;;;;491854;240;1020;-46
2021/08/07 03:41:13;;;;;;;;;;;19.10;70.00;;;;;;491530;240;1182;-46
2021/08/07 03:43:14;;;;;;;;;;;19.00;69.90;;;;;;491727;240;1061;-46
2021/08/07 03:45:16;;;;;;;;;;;19.00;69.90;;;;;;491631;240;1110;-46
2021/08/07 03:47:17;;;;;;;;;;;19.00;69.90;;;;;;491506;240;1263;-45
2021/08/07 03:49:18;;;;;;;;;;;19.00;70.00;;;;;;491649;240;1024;-45
2021/08/07 03:51:20;;;;;;;;;;;19.00;69.90;;;;;;491459;240;1094;-46
2021/08/07 03:53:21;;;;;;;;;;;19.10;69.90;;;;;;491702;240;2140;-46
2021/08/07 03:55:22;;;;;;;;;;;19.00;69.90;;;;;;491762;240;1332;-46
2021/08/07 03:57:24;;;;;;;;;;;19.00;70.00;;;;;;491656;240;1094;-45
2021/08/07 03:59:25;;;;;;;;;;;19.00;69.90;;;;;;491764;240;1012;-45
2021/08/07 04:01:26;;;;;;;;;;;19.00;69.90;;;;;;491986;240;1149;-45
2021/08/07 04:03:28;;;;;;;;;;;19.00;69.90;;;;;;491513;240;1104;-46
2021/08/07 04:05:29;;;;;;;;;;;19.00;69.90;;;;;;492054;240;1032;-46
2021/08/07 04:07:32;;;;;;;;;;;19.00;69.80;;;;;;491838;240;1289;-46
2021/08/07 04:09:33;;;;;;;;;;;19.00;69.80;;;;;;491879;240;969;-46
2021/08/07 04:11:34;;;;;;;;;;;19.00;69.90;;;;;;491539;240;1166;-45
2021/08/07 04:13:36;;;;;;;;;;;19.00;70.00;;;;;;491945;240;2196;-46
2021/08/07 04:15:38;;;;;;;;;;;19.00;70.00;;;;;;491940;240;1074;-45
2021/08/07 04:17:38;;;;;;;;;;;19.00;70.00;;;;;;491369;240;2257;-46
2021/08/07 04:19:40;;;;;;;;;;;18.90;70.00;;;;;;491559;240;1191;-46
2021/08/07 04:21:41;;;;;;;;;;;19.00;70.00;;;;;;491745;240;1152;-46
2021/08/07 04:23:42;;;;;;;;;;;19.00;70.00;;;;;;491482;240;1190;-46
2021/08/07 04:25:44;;;;;;;;;;;18.90;70.00;;;;;;491848;240;1175;-46
2021/08/07 04:27:45;;;;;;;;;;;19.00;70.10;;;;;;491907;240;1298;-45
2021/08/07 04:29:46;;;;;;;;;;;18.90;70.00;;;;;;491837;240;1055;-45
2021/08/07 04:31:48;;;;;;;;;;;18.90;70.10;;;;;;492024;240;1077;-46
2021/08/07 04:33:49;;;;;;;;;;;18.90;70.00;;;;;;491958;240;2125;-45
2021/08/07 04:35:50;;;;;;;;;;;18.90;70.00;;;;;;491591;240;1076;-45
2021/08/07 04:37:52;;;;;;;;;;;18.90;70.10;;;;;;491469;240;1283;-45
2021/08/07 04:39:53;;;;;;;;;;;18.90;70.10;;;;;;492061;240;1145;-46
2021/08/07 04:41:54;;;;;;;;;;;18.90;70.00;;;;;;491535;240;1199;-46
2021/08/07 04:43:56;;;;;;;;;;;18.90;70.00;;;;;;491518;240;1075;-45
2021/08/07 04:45:57;;;;;;;;;;;19.00;70.00;;;;;;491928;240;1499;-46
2021/08/07 04:47:58;;;;;;;;;;;18.90;70.10;;;;;;491485;240;1241;-45
2021/08/07 04:50:00;;;;;;;;;;;18.90;70.20;;;;;;491525;240;1061;-46
2021/08/07 04:52:01;;;;;;;;;;;18.90;70.10;;;;;;491727;240;1173;-45
2021/08/07 04:54:04;;;;;;;;;;;18.90;70.20;;;;;;491919;240;2196;-46
2021/08/07 04:56:04;;;;;;;;;;;18.90;70.10;;;;;;491757;240;2316;-46
2021/08/07 04:58:05;;;;;;;;;;;18.90;70.10;;;;;;491516;240;1250;-46
2021/08/07 05:00:06;;;;;;;;;;;18.90;70.10;;;;;;491518;240;986;-45
2021/08/07 05:02:08;;;;;;;;;;;18.90;70.10;;;;;;491470;240;1195;-46
2021/08/07 05:04:12;;;;;;;;;;;18.90;70.10;;;;;;491782;240;1092;-46
2021/08/07 05:06:12;;;;;;;;;;;18.90;70.10;;;;;;491527;240;2277;-46
2021/08/07 05:08:13;;;;;;;;;;;18.90;70.10;;;;;;491979;240;1125;-45
2021/08/07 05:10:15;;;;;;;;;;;18.90;70.20;;;;;;491589;240;1000;-46
2021/08/07 05:12:16;;;;;;;;;;;18.90;70.20;;;;;;491459;240;1195;-45
2021/08/07 05:14:17;;;;;;;;;;;18.90;70.20;;;;;;491504;240;2150;-45
2021/08/07 05:16:19;;;;;;;;;;;18.90;70.20;;;;;;491476;240;1194;-45
2021/08/07 05:18:20;;;;;;;;;;;18.80;70.20;;;;;;491808;240;1199;-46
2021/08/07 05:20:21;;;;;;;;;;;18.80;70.10;;;;;;491978;240;1049;-45
2021/08/07 05:22:23;;;;;;;;;;;18.90;70.20;;;;;;492015;240;1183;-45
2021/08/07 05:24:24;;;;;;;;;;;18.80;70.10;;;;;;491792;240;1007;-45
2021/08/07 05:26:25;;;;;;;;;;;18.90;70.20;;;;;;491841;240;1288;-46
2021/08/07 05:28:27;;;;;;;;;;;18.90;70.20;;;;;;491966;240;1023;-45
2021/08/07 05:30:28;;;;;;;;;;;18.80;70.20;;;;;;491566;240;1044;-46
2021/08/07 05:32:29;;;;;;;;;;;18.80;70.20;;;;;;491454;240;2192;-45
2021/08/07 05:34:31;;;;;;;;;;;18.80;70.20;;;;;;491767;240;1237;-46
2021/08/07 05:36:32;;;;;;;;;;;18.90;70.20;;;;;;491894;240;1130;-45
2021/08/07 05:38:33;;;;;;;;;;;18.80;70.20;;;;;;491955;240;1114;-45
2021/08/07 05:40:35;;;;;;;;;;;18.80;70.30;;;;;;491879;240;1058;-46
2021/08/07 05:42:36;;;;;;;;;;;18.80;70.30;;;;;;491472;240;1193;-45
2021/08/07 05:44:37;;;;;;;;;;;18.80;70.30;;;;;;491977;240;1009;-46
2021/08/07 05:46:39;;;;;;;;;;;18.80;70.30;;;;;;491875;240;1675;-45
2021/08/07 05:48:40;;;;;;;;;;;18.80;70.30;;;;;;491564;240;1184;-45
2021/08/07 05:50:41;;;;;;;;;;;18.80;70.40;;;;;;492043;240;1275;-46
2021/08/07 05:52:43;;;;;;;;;;;18.80;70.20;;;;;;491945;240;2176;-46
2021/08/07 05:54:44;;;;;;;;;;;18.80;70.30;;;;;;491476;240;1473;-46
2021/08/07 05:56:46;;;;;;;;;;;18.80;70.40;;;;;;491762;240;1248;-45
2021/08/07 05:58:47;;;;;;;;;;;18.80;70.30;;;;;;491682;240;1179;-46
2021/08/07 06:00:48;;;;;;;;;;;18.80;70.20;;;;;;491541;240;1095;-45
2021/08/07 06:02:50;;;;;;;;;;;18.80;70.20;;;;;;491525;240;1121;-45
2021/08/07 06:04:51;;;;;;;;;;;18.80;70.40;;;;;;491950;240;1095;-46
2021/08/07 06:06:52;;;;;;;;;;;18.80;70.30;;;;;;491955;240;1315;-46
2021/08/07 06:08:54;;;;;;;;;;;18.80;70.30;;;;;;491999;240;1084;-45
2021/08/07 06:10:55;;;;;;;;;;;18.80;70.40;;;;;;491616;240;1121;-45
2021/08/07 06:12:57;;;;;;;;;;;18.80;70.40;;;;;;491502;240;2164;-45
2021/08/07 06:14:58;;;;;;;;;;;18.80;70.40;;;;;;491486;240;1083;-45
2021/08/07 06:16:59;;;;;;;;;;;18.80;70.40;;;;;;491510;240;1191;-45
2021/08/07 06:19:01;;;;;;;;;;;18.80;70.30;;;;;;491738;240;1055;-45
2021/08/07 06:21:02;;;;;;;;;;;18.80;70.40;;;;;;491516;240;1459;-46
2021/08/07 06:23:03;;;;;;;;;;;18.80;70.30;;;;;;491861;240;1180;-46
2021/08/07 06:25:05;;;;;;;;;;;18.80;70.40;;;;;;491721;240;1114;-45
2021/08/07 06:27:06;;;;;;;;;;;18.80;70.30;;;;;;491556;240;1148;-46
2021/08/07 06:29:08;;;;;;;;;;;18.80;70.50;;;;;;491716;240;1196;-45
2021/08/07 06:31:09;;;;;;;;;;;18.70;70.40;;;;;;491501;240;1054;-45
2021/08/07 06:33:11;;;;;;;;;;;18.80;70.40;;;;;;491909;240;2180;-46
2021/08/07 06:35:12;;;;;;;;;;;18.80;70.40;;;;;;491653;240;1129;-45
2021/08/07 06:37:13;;;;;;;;;;;18.70;70.40;;;;;;491554;240;1119;-45
2021/08/07 06:39:15;;;;;;;;;;;18.80;70.30;;;;;;491533;240;1065;-45
2021/08/07 06:41:16;;;;;;;;;;;18.80;70.50;;;;;;491557;240;1212;-45
2021/08/07 06:43:18;;;;;;;;;;;18.70;70.50;;;;;;491587;240;1070;-45
2021/08/07 06:45:19;;;;;;;;;;;18.80;70.40;;;;;;491574;240;1057;-45
2021/08/07 06:47:20;;;;;;;;;;;18.70;70.40;;;;;;492025;240;1103;-45
2021/08/07 06:49:21;;;;;;;;;;;18.70;70.40;;;;;;491499;240;1065;-45
2021/08/07 06:51:23;;;;;;;;;;;18.80;70.50;;;;;;491838;240;1305;-45
2021/08/07 06:53:24;;;;;;;;;;;18.70;70.60;;;;;;492021;240;2196;-45
2021/08/07 06:55:26;;;;;;;;;;;18.70;70.60;;;;;;491575;240;1057;-46
2021/08/07 06:57:27;;;;;;;;;;;18.70;70.50;;;;;;491538;240;1119;-46
2021/08/07 06:59:29;;;;;;;;;;;18.70;70.50;;;;;;491888;240;1065;-45
2021/08/07 07:01:30;;;;;;;;;;;18.70;70.50;;;;;;491587;240;1121;-46
2021/08/07 07:03:31;;;;;;;;;;;18.70;70.50;;;;;;491578;240;1086;-46
2021/08/07 07:05:33;;;;;;;;;;;18.70;70.40;;;;;;492059;240;1095;-46
2021/08/07 07:07:34;;;;;;;;;;;18.70;70.50;;;;;;492058;240;1098;-46
2021/08/07 07:09:35;;;;;;;;;;;19.00;69.80;;;;;;491535;240;1292;-45
2021/08/07 07:11:37;;;;;;;;;;;19.30;68.60;;;;;;491904;240;1064;-46
2021/08/07 07:13:39;;;;;;;;;;;19.50;67.50;;;;;;491595;240;2192;-46
2021/08/07 07:15:40;;;;;;;;;;;19.70;66.90;;;;;;491724;240;1068;-46
2021/08/07 07:17:41;;;;;;;;;;;19.90;66.20;;;;;;491871;240;1087;-46
2021/08/07 07:19:43;;;;;;;;;;;20.00;65.70;;;;;;491727;240;1061;-46
2021/08/07 07:21:44;;;;;;;;;;;20.10;65.30;;;;;;491513;240;1062;-46
2021/08/07 07:23:45;;;;;;;;;;;20.20;64.90;;;;;;491789;240;1081;-46
2021/08/07 07:25:48;;;;;;;;;;;20.30;64.70;;;;;;491637;240;1300;-46
2021/08/07 07:27:48;;;;;;;;;;;20.30;64.50;;;;;;491790;240;2602;-46
2021/08/07 07:29:49;;;;;;;;;;;20.40;64.40;;;;;;491568;240;1083;-46
2021/08/07 07:31:51;;;;;;;;;;;20.50;64.10;;;;;;491567;240;1117;-45
2021/08/07 07:33:52;;;;;;;;;;;20.50;64.00;;;;;;491587;240;2133;-46
2021/08/07 07:35:53;;;;;;;;;;;20.60;63.80;;;;;;491611;240;1115;-46
2021/08/07 07:37:55;;;;;;;;;;;20.60;63.60;;;;;;491964;240;1054;-46
2021/08/07 07:39:56;;;;;;;;;;;20.70;63.60;;;;;;491635;240;1047;-46
2021/08/07 07:41:57;;;;;;;;;;;20.60;63.50;;;;;;491686;240;1223;-46
2021/08/07 07:43:59;;;;;;;;;;;20.70;63.30;;;;;;491662;240;1162;-46
2021/08/07 07:46:00;;;;;;;;;;;20.80;63.30;;;;;;491658;240;1028;-46
2021/08/07 07:48:01;;;;;;;;;;;20.80;63.20;;;;;;491506;240;1185;-46
2021/08/07 07:50:03;;;;;;;;;;;20.80;63.10;;;;;;491537;240;1037;-46
2021/08/07 07:52:04;;;;;;;;;;;20.90;63.00;;;;;;491667;240;1329;-46
2021/08/07 07:54:05;;;;;;;;;;;20.90;62.90;;;;;;492012;240;2145;-46
2021/08/07 07:56:07;;;;;;;;;;;20.90;62.80;;;;;;491519;240;1063;-46
2021/08/07 07:58:08;;;;;;;;;;;20.90;62.80;;;;;;491502;240;1288;-46
2021/08/07 08:00:09;;;;;;;;;;;20.90;62.80;;;;;;491518;240;1280;-46
2021/08/07 08:02:11;;;;;;;;;;;21.00;62.60;;;;;;491596;240;1122;-46
2021/08/07 08:04:12;;;;;;;;;;;21.10;62.50;;;;;;491530;240;1215;-46
2021/08/07 08:06:13;;;;;;;;;;;21.10;62.40;;;;;;491970;240;1042;-46
2021/08/07 08:08:15;;;;;;;;;;;21.10;62.30;;;;;;491787;240;1107;-46
2021/08/07 08:10:16;;;;;;;;;;;21.10;62.30;;;;;;491839;240;1063;-46
2021/08/07 08:12:17;;;;;;;;;;;21.10;62.40;;;;;;491518;240;1043;-46
2021/08/07 08:14:19;;;;;;;;;;;21.10;62.30;;;;;;491530;240;2191;-46
2021/08/07 08:16:20;;;;;;;;;;;21.10;62.30;;;;;;491541;240;1102;-46
2021/08/07 08:18:21;;;;;;;;;;;21.20;62.30;;;;;;491547;240;1375;-46
2021/08/07 08:20:23;;;;;;;;;;;21.20;62.20;;;;;;491730;240;1121;-46
2021/08/07 08:22:24;;;;;;;;;;;21.20;62.20;;;;;;491451;240;1298;-46
2021/08/07 08:24:25;;;;;;;;;;;21.20;62.10;;;;;;491948;240;1087;-46
2021/08/07 08:26:27;;;;;;;;;;;21.20;61.90;;;;;;491862;240;1270;-46
2021/08/07 08:28:28;;;;;;;;;;;21.30;61.90;;;;;;491749;240;1365;-46
2021/08/07 08:30:29;;;;;;;;;;;21.40;61.80;;;;;;491560;240;1034;-46
2021/08/07 08:32:31;;;;;;;;;;;21.30;61.80;;;;;;491667;240;1303;-46
2021/08/07 08:34:32;;;;;;;;;;;21.30;61.80;;;;;;491924;240;2140;-46
2021/08/07 08:36:33;;;;;;;;;;;21.40;61.90;;;;;;491900;240;1015;-46
2021/08/07 08:38:35;;;;;;;;;;;21.40;61.80;;;;;;491660;240;1026;-46
2021/08/07 08:40:36;;;;;;;;;;;21.40;61.80;;;;;;492002;240;1021;-46
2021/08/07 08:42:37;;;;;;;;;;;21.40;61.70;;;;;;491655;240;1160;-46
2021/08/07 08:44:39;;;;;;;;;;;21.40;61.60;;;;;;491650;240;1173;-46
2021/08/07 08:46:40;;;;;;;;;;;21.40;61.60;;;;;;491500;240;1143;-46
2021/08/07 08:48:41;;;;;;;;;;;21.40;61.60;;;;;;491564;240;1052;-46
2021/08/07 08:50:43;;;;;;;;;;;21.40;61.60;;;;;;491855;240;1087;-46
2021/08/07 08:52:44;;;;;;;;;;;21.50;61.50;;;;;;491577;240;1042;-46
2021/08/07 08:54:47;;;;;;;;;;;21.50;61.60;;;;;;492037;240;2196;-46
2021/08/07 08:56:48;;;;;;;;;;;21.50;61.60;;;;;;491986;240;1071;-46
2021/08/07 08:58:49;;;;;;;;;;;21.50;61.60;;;;;;491873;240;1185;-46
2021/08/07 09:00:51;;;;;;;;;;;21.50;61.50;;;;;;491772;240;1064;-46
2021/08/07 09:02:52;;;;;;;;;;;21.50;61.50;;;;;;492008;240;1250;-46
2021/08/07 09:04:53;;;;;;;;;;;21.60;61.50;;;;;;491937;240;1091;-46
2021/08/07 09:06:55;;;;;;;;;;;21.50;61.40;;;;;;491790;240;1076;-46
2021/08/07 09:08:56;;;;;;;;;;;21.60;61.30;;;;;;491560;240;1063;-46
2021/08/07 09:10:58;;;;;;;;;;;21.60;61.30;;;;;;491639;240;1128;-46
2021/08/07 09:13:00;;;;;;;;;;;21.60;61.20;;;;;;491503;240;1081;-46
2021/08/07 09:15:00;;;;;;;;;;;21.60;61.30;;;;;;491552;240;2772;-46
2021/08/07 09:17:03;;;;;;;;;;;21.60;61.30;;;;;;491521;240;1051;-46
2021/08/07 09:19:03;;;;;;;;;;;21.60;61.40;;;;;;492002;240;1840;-46
2021/08/07 09:21:04;;;;;;;;;;;21.60;61.40;;;;;;491700;240;1070;-46
2021/08/07 09:23:06;;;;;;;;;;;21.60;61.40;;;;;;491754;240;1090;-46
2021/08/07 09:25:08;;;;;;;;;;;21.60;61.30;;;;;;491546;240;1046;-46
2021/08/07 09:27:10;;;;;;;;;;;21.60;61.30;;;;;;491374;240;1126;-46
2021/08/07 09:29:11;;;;;;;;;;;21.70;61.30;;;;;;491590;240;1167;-45
2021/08/07 09:31:12;;;;;;;;;;;21.60;61.30;;;;;;491680;240;1239;-46
2021/08/07 09:33:14;;;;;;;;;;;21.70;61.40;;;;;;491481;240;1317;-46
2021/08/07 09:35:15;;;;;;;;;;;21.60;61.30;;;;;;491550;240;2199;-46
2021/08/07 09:37:16;;;;;;;;;;;21.70;61.20;;;;;;491950;240;1593;-46
2021/08/07 09:39:18;;;;;;;;;;;21.70;61.30;;;;;;491633;240;942;-46
2021/08/07 09:41:19;;;;;;;;;;;21.70;61.20;;;;;;491468;240;1072;-45
2021/08/07 09:43:20;;;;;;;;;;;21.70;61.20;;;;;;491957;240;1333;-46
2021/08/07 09:45:22;;;;;;;;;;;21.70;61.30;;;;;;491638;240;1129;-46
2021/08/07 09:47:23;;;;;;;;;;;21.70;62.30;;;;;;491674;240;1045;-46
2021/08/07 09:49:25;;;;;;;;;;;21.60;62.30;;;;;;491788;240;1077;-46
2021/08/07 09:51:26;;;;;;;;;;;21.30;63.30;;;;;;491623;240;1115;-46
2021/08/07 09:53:28;;;;;;;;;;;20.90;64.60;;;;;;491543;240;1078;-46
2021/08/07 09:55:29;;;;;;;;;;;20.60;65.80;;;;;;492036;240;2180;-46
2021/08/07 09:57:30;;;;;;;;;;;20.40;66.50;;;;;;491660;240;1324;-46
2021/08/07 09:59:33;;;;;;;;;;;20.20;67.10;;;;;;491832;240;1305;-46
2021/08/07 10:01:35;;;;;;;;;;;20.10;67.60;;;;;;491486;240;2044;-46
2021/08/07 10:03:36;;;;;;;;;;;20.00;67.90;;;;;;491624;240;1419;-46
2021/08/07 10:05:36;;;;;;;;;;;19.90;68.10;;;;;;491570;240;1419;-46
2021/08/07 10:07:37;;;;;;;;;;;19.90;68.30;;;;;;491539;240;1195;-46
2021/08/07 10:09:39;;;;;;;;;;;19.80;68.40;;;;;;491704;240;1063;-46
2021/08/07 10:11:40;;;;;;;;;;;19.80;68.50;;;;;;491500;240;1146;-46
2021/08/07 10:13:41;;;;;;;;;;;19.70;68.70;;;;;;492003;240;1122;-46
2021/08/07 10:15:43;;;;;;;;;;;19.60;68.80;;;;;;491631;240;2160;-46
2021/08/07 10:17:44;;;;;;;;;;;19.60;69.00;;;;;;492005;240;1264;-45
2021/08/07 10:19:45;;;;;;;;;;;19.60;69.00;;;;;;491597;240;1031;-46
2021/08/07 10:21:47;;;;;;;;;;;19.60;69.10;;;;;;491764;240;1360;-46
2021/08/07 10:23:48;;;;;;;;;;;19.50;69.10;;;;;;491536;240;1068;-46
2021/08/07 10:25:50;;;;;;;;;;;19.60;69.10;;;;;;491975;240;1055;-45
2021/08/07 10:27:51;;;;;;;;;;;19.50;69.10;;;;;;491543;240;1041;-46
2021/08/07 10:29:52;;;;;;;;;;;19.50;69.20;;;;;;491750;240;1179;-45
2021/08/07 10:31:54;;;;;;;;;;;19.40;69.30;;;;;;491718;240;1044;-45
2021/08/07 10:33:55;;;;;;;;;;;19.40;69.40;;;;;;491647;240;1070;-45
2021/08/07 10:35:56;;;;;;;;;;;19.40;69.50;;;;;;491838;240;2109;-45
2021/08/07 10:37:58;;;;;;;;;;;19.40;69.40;;;;;;491533;240;1178;-46
2021/08/07 10:39:59;;;;;;;;;;;19.40;69.40;;;;;;491555;240;1061;-46
2021/08/07 10:42:02;;;;;;;;;;;19.40;69.30;;;;;;491522;240;1552;-45
2021/08/07 10:44:03;;;;;;;;;;;19.40;69.50;;;;;;491577;240;1196;-45
2021/08/07 10:46:04;;;;;;;;;;;19.30;69.40;;;;;;491551;240;1170;-46
2021/08/07 10:48:06;;;;;;;;;;;19.30;69.50;;;;;;491619;240;1304;-46
2021/08/07 10:50:07;;;;;;;;;;;19.30;69.60;;;;;;492068;240;1071;-45
2021/08/07 10:52:08;;;;;;;;;;;19.30;69.60;;;;;;491669;240;1109;-46
2021/08/07 10:54:10;;;;;;;;;;;19.30;69.60;;;;;;491636;240;1090;-46
2021/08/07 10:56:11;;;;;;;;;;;19.30;69.70;;;;;;491810;240;2132;-45
2021/08/07 10:58:12;;;;;;;;;;;19.20;69.80;;;;;;492060;240;1125;-46
2021/08/07 11:00:14;;;;;;;;;;;19.20;69.70;;;;;;491577;240;1216;-46
2021/08/07 11:02:15;;;;;;;;;;;19.20;69.70;;;;;;491538;240;1159;-46
2021/08/07 11:04:16;;;;;;;;;;;19.20;69.70;;;;;;491589;240;1031;-46
2021/08/07 11:06:18;;;;;;;;;;;19.20;69.70;;;;;;491441;240;1068;-45
2021/08/07 11:08:19;;;;;;;;;;;19.20;69.70;;;;;;491768;240;1054;-46
2021/08/07 11:10:20;;;;;;;;;;;19.20;69.70;;;;;;491983;240;1043;-46
2021/08/07 11:12:22;;;;;;;;;;;19.20;69.80;;;;;;491639;240;1162;-45
2021/08/07 11:14:24;;;;;;;;;;;19.20;69.80;;;;;;491974;240;1090;-46
2021/08/07 11:16:24;;;;;;;;;;;19.20;69.80;;;;;;491545;240;2196;-46
2021/08/07 11:18:26;;;;;;;;;;;19.20;69.90;;;;;;491844;240;1073;-45
2021/08/07 11:20:27;;;;;;;;;;;19.20;69.80;;;;;;492038;240;1046;-46
2021/08/07 11:22:28;;;;;;;;;;;19.20;69.80;;;;;;491849;240;1058;-46
2021/08/07 11:24:30;;;;;;;;;;;19.20;69.80;;;;;;491995;240;1053;-46
2021/08/07 11:26:32;;;;;;;;;;;19.20;69.80;;;;;;491499;240;1075;-46
2021/08/07 11:28:34;;;;;;;;;;;19.20;69.80;;;;;;491972;240;1124;-45
2021/08/07 11:30:35;;;;;;;;;;;19.10;69.80;;;;;;491831;240;1168;-45
2021/08/07 11:32:37;;;;;;;;;;;19.10;69.90;;;;;;491669;240;1135;-45
2021/08/07 11:34:38;;;;;;;;;;;19.10;70.00;;;;;;491508;240;2133;-46
2021/08/07 11:36:39;;;;;;;;;;;19.10;70.10;;;;;;491646;240;1055;-45
2021/08/07 11:38:40;;;;;;;;;;;19.00;70.00;;;;;;491561;240;1078;-46
2021/08/07 11:40:42;;;;;;;;;;;19.10;70.10;;;;;;491719;240;1158;-46
2021/08/07 11:42:43;;;;;;;;;;;19.10;70.10;;;;;;491528;240;1179;-46
2021/08/07 11:44:45;;;;;;;;;;;19.00;70.00;;;;;;492055;240;1048;-46
2021/08/07 11:46:46;;;;;;;;;;;19.10;70.10;;;;;;491492;240;1276;-46
2021/08/07 11:48:49;;;;;;;;;;;19.10;70.00;;;;;;491731;240;1019;-46
2021/08/07 11:50:49;;;;;;;;;;;19.00;70.00;;;;;;491579;240;2290;-46
2021/08/07 11:52:50;;;;;;;;;;;19.00;70.10;;;;;;491507;240;1263;-46
2021/08/07 11:54:52;;;;;;;;;;;19.00;70.10;;;;;;491586;240;2197;-45
2021/08/07 11:56:53;;;;;;;;;;;19.00;70.10;;;;;;491895;240;1179;-45